Airport View

Enter AWOS ICAO identifier for current METAR.

ex. KFNL

KPSN 210015Z AUTO 14010G14KT 10SM CLR 27/22 A3001 RMK AO2 T02730226

21 Sep 2019 00:40

Frequency: 118.025

Phone: 903-729-3641

Other Area AWOS: KF44 - KJSO - KDKR - KTYR

TAF KTYR 202320Z 2100/2124 16013KT P6SM SCT250 FM210600 15008KT P6SM SCT025 FM211100 15008KT 6SM BR BKN015 FM211600 17011KT P6SM SCT020 SCT030 FM211800 16013G20KT P6SM SCT040 SCT250